Weather reports worldwide

Advertisment
Estaca de Bares, Spain (8004): temperature & dewpoint: 09.12.2019 18:00:00 - 15.12.2019 18:00:00 (CET)Estaca de Bares, Spain (8004): wind speed & gusts: 09.12.2019 18:00:00 - 15.12.2019 18:00:00 (CET)Estaca de Bares, Spain (8004): wind direction: 09.12.2019 18:00:00 - 15.12.2019 18:00:00 (CET)Estaca de Bares, Spain (8004): reduced air pressure: 09.12.2019 18:00:00 - 15.12.2019 18:00:00 (CET)Estaca de Bares, Spain (8004): sunshine duration: 09.12.2019 18:00:00 - 15.12.2019 18:00:00 (CET)Estaca de Bares, Spain (8004): precipitation: 09.12.2019 18:00:00 - 15.12.2019 18:00:00 (CET)
Date & Time tt [°C] td [°C] ff [km/h] ff [kn] fx [km/h] fx [kn] dd ppp [hPa] sd [min] rr [mm]
15.12.2019 18:00:00 11,7 7,3 22 12 34 18 WSW 1003,9 0 0,0
15.12.2019 17:00:00 11,8 8,7 22 12 37 20 WSW 1004,4 0 0,0
15.12.2019 16:00:00 12,0 8,3 33 18 43 23 W 1004,1 0 0,0
15.12.2019 15:00:00 12,2 8,8 36 20 49 26 WSW 1004,6 45 0,0
15.12.2019 14:00:00 12,0 8,8 38 21 53 29 WSW 1005,3 6 0,0
15.12.2019 13:00:00 11,8 8,3 41 22 53 29 WSW 1005,8 36 -
15.12.2019 12:00:00 11,3 8,7 37 20 51 28 WSW 1006,5 3 0,0
15.12.2019 11:00:00 11,0 8,8 39 21 46 25 WSW 1006,7 3 0,0
15.12.2019 10:00:00 10,7 8,9 30 16 39 21 WSW 1006,4 0 0,0
15.12.2019 09:00:00 10,8 8,9 29 16 35 19 WSW 1006,3 0 0,2
15.12.2019 08:00:00 10,2 9,4 24 13 31 17 WSW 1006,1 0 0,4
15.12.2019 07:00:00 10,4 9,7 21 11 42 23 W 1006,1 0 -
15.12.2019 06:00:00 10,5 9,9 35 19 63 34 W 1006,1 0 2,0
15.12.2019 05:00:00 11,0 10,0 30 16 51 28 WSW 1006,1 0 1,2
15.12.2019 04:00:00 11,0 10,0 38 21 45 24 WSW 1006,4 0 2,8
15.12.2019 03:00:00 11,0 10,2 39 21 62 34 W 1006,2 0 3,8
15.12.2019 02:00:00 11,1 10,3 46 25 55 30 W 1006,5 0 3,0
15.12.2019 01:00:00 11,3 10,5 40 22 89 48 W 1006,4 0 -
15.12.2019 00:00:00 11,1 10,3 63 34 90 49 W 1005,0 0 3,8
14.12.2019 23:00:00 13,9 11,6 74 40 98 53 WSW 1003,5 0 0,2
14.12.2019 22:00:00 14,8 11,2 71 38 93 50 WSW 1003,9 0 0,2
14.12.2019 21:00:00 14,0 11,6 61 33 84 45 WSW 1004,7 0 0,0
14.12.2019 20:00:00 12,8 11,6 56 31 78 42 WSW 1005,5 0 0,2
14.12.2019 19:00:00 13,8 10,4 65 35 90 48 WSW 1005,5 0 -
14.12.2019 18:00:00 14,1 10,3 65 35 85 46 WSW 1005,8 0 0,0
14.12.2019 17:00:00 13,9 10,6 65 35 98 53 WSW 1006,2 1 0,0
14.12.2019 16:00:00 14,5 11,1 62 34 87 47 WSW 1006,3 35 0,0
14.12.2019 15:00:00 13,4 11,4 65 35 102 55 WSW 1006,6 5 0,0
14.12.2019 14:00:00 15,3 10,5 70 38 93 50 W 1007,2 51 0,0
14.12.2019 13:00:00 14,3 10,5 69 37 86 47 W 1008,1 23 -
14.12.2019 12:00:00 14,3 10,2 70 38 86 47 WSW 1009,5 49 0,0
14.12.2019 11:00:00 14,0 10,4 60 33 79 43 W 1010,4 26 0,0
14.12.2019 10:00:00 13,9 9,7 68 37 89 48 W 1009,7 24 0,0
14.12.2019 09:00:00 13,4 10,2 69 37 84 46 W 1009,8 0 0,0
14.12.2019 08:00:00 13,4 10,8 64 34 77 42 W 1009,9 0 0,0
14.12.2019 07:00:00 13,2 10,9 65 35 77 41 W 1009,9 0 -
14.12.2019 06:00:00 12,5 11,4 60 32 74 40 W 1010,5 0 0,2
14.12.2019 05:00:00 12,6 11,2 63 34 78 42 W 1010,5 0 0,0
14.12.2019 04:00:00 12,6 11,0 66 36 95 51 W 1010,5 0 0,0
14.12.2019 03:00:00 13,4 10,5 69 38 90 49 W 1010,3 0 0,0
14.12.2019 02:00:00 13,4 10,5 74 40 95 52 W 1010,1 0 0,0
14.12.2019 01:00:00 13,3 11,0 74 40 91 49 W 1010,4 0 -
14.12.2019 00:00:00 13,0 11,2 68 37 87 47 W 1010,6 0 0,0
13.12.2019 23:00:00 13,1 10,8 66 35 84 45 W 1011,1 0 0,0
13.12.2019 22:00:00 12,5 11,1 66 35 85 46 W 1011,4 0 0,0
13.12.2019 21:00:00 13,1 10,3 68 37 87 47 W 1011,4 0 0,0
13.12.2019 20:00:00 13,6 9,3 73 40 99 54 W 1011,6 0 0,0
13.12.2019 19:00:00 13,6 9,8 64 34 105 57 W 1011,7 0 -
13.12.2019 18:00:00 14,4 9,2 77 42 91 49 W 1010,6 0 0,0
13.12.2019 17:00:00 14,3 10,8 72 39 100 54 W 1011,0 0 0,0
13.12.2019 16:00:00 14,4 11,3 71 39 95 51 W 1011,0 0 0,0
13.12.2019 15:00:00 14,7 10,8 67 36 94 51 W 1011,0 0 0,0
13.12.2019 14:00:00 14,0 11,7 78 42 100 54 W 1011,3 0 0,0
13.12.2019 13:00:00 14,7 11,9 79 43 103 55 W 1012,2 0 -
13.12.2019 12:00:00 14,1 12,1 69 38 98 53 W 1012,5 0 0,0
13.12.2019 11:00:00 14,0 12,5 66 36 93 50 W 1012,2 0 0,0
13.12.2019 10:00:00 14,2 12,2 78 42 96 52 W 1011,0 0 0,0
13.12.2019 09:00:00 14,3 12,2 83 45 106 58 W 1010,2 0 0,0
13.12.2019 08:00:00 14,1 12,3 84 46 112 60 W 1009,8 0 0,0
13.12.2019 07:00:00 14,1 12,1 91 49 110 59 W 1008,6 0 -
13.12.2019 06:00:00 13,8 12,2 88 48 119 64 W 1007,8 0 0,0
13.12.2019 05:00:00 14,1 12,1 84 45 107 58 W 1007,7 0 0,0
13.12.2019 04:00:00 13,9 12,3 85 46 116 62 W 1007,7 0 0,0
13.12.2019 03:00:00 13,9 12,3 86 47 114 61 W 1006,9 0 0,0
13.12.2019 02:00:00 14,3 12,0 96 52 117 63 W 1005,8 0 0,0
13.12.2019 01:00:00 13,9 12,4 81 44 113 61 W 1007,5 0 -
13.12.2019 00:00:00 13,8 12,6 93 50 112 60 W 1006,5 0 0,2
12.12.2019 23:00:00 13,9 12,7 79 43 106 58 W 1007,8 0 0,4
12.12.2019 22:00:00 13,9 12,6 89 48 112 61 W 1006,6 0 0,2
12.12.2019 21:00:00 14,0 12,5 79 43 110 59 W 1006,7 0 0,0
12.12.2019 20:00:00 14,1 12,8 90 49 115 62 W 1006,5 0 0,2
12.12.2019 19:00:00 13,8 12,6 86 47 113 61 W 1006,6 0 -
12.12.2019 18:00:00 13,6 12,8 86 47 111 60 W 1006,5 0 0,4
12.12.2019 17:00:00 13,6 12,8 83 45 105 57 W 1006,4 0 0,2
12.12.2019 16:00:00 13,6 12,6 90 48 111 60 W 1005,4 0 0,4
12.12.2019 15:00:00 13,4 12,6 95 52 119 64 W 1005,1 0 0,8
12.12.2019 14:00:00 13,3 12,5 88 48 119 64 W 1005,5 0 0,8
12.12.2019 13:00:00 13,1 12,1 95 52 114 62 W 1006,1 0 -
12.12.2019 12:00:00 12,6 11,4 87 47 112 61 W 1007,0 0 0,6
12.12.2019 11:00:00 12,1 11,0 82 44 106 58 W 1008,0 0 1,4
12.12.2019 10:00:00 11,8 10,5 81 44 98 53 W 1008,9 0 0,6
12.12.2019 09:00:00 11,5 9,9 67 36 91 49 W 1010,7 0 0,4
12.12.2019 08:00:00 11,6 9,3 70 38 83 45 W 1011,8 0 0,0
12.12.2019 07:00:00 12,2 8,8 70 38 91 49 W 1012,7 0 -
12.12.2019 06:00:00 12,2 9,4 60 33 85 46 W 1013,6 0 0,0
12.12.2019 05:00:00 11,3 9,6 64 34 79 43 W 1014,7 0 0,2
12.12.2019 04:00:00 11,1 9,6 55 30 66 36 W 1016,3 0 0,4
12.12.2019 03:00:00 11,3 9,7 50 27 64 35 WSW 1017,5 0 0,2
12.12.2019 02:00:00 11,4 9,2 55 30 64 35 WSW 1018,3 0 0,0
12.12.2019 01:00:00 11,3 9,0 50 27 74 40 WSW 1019,7 0 -
12.12.2019 00:00:00 12,0 9,0 48 26 82 44 W 1020,2 0 0,0
11.12.2019 23:00:00 12,0 8,5 56 30 71 38 W 1020,8 0 0,0
11.12.2019 22:00:00 12,0 8,7 51 28 76 41 W 1021,4 0 0,0
11.12.2019 21:00:00 11,9 9,3 62 33 94 51 W 1021,4 0 0,2
11.12.2019 20:00:00 12,2 9,0 58 32 81 44 W 1021,7 0 0,2
11.12.2019 19:00:00 11,8 9,3 58 32 78 42 W 1021,7 0 -
11.12.2019 18:00:00 10,4 9,0 57 31 95 51 W 1021,8 0 0,4
11.12.2019 17:00:00 12,3 8,9 71 38 90 48 W 1021,3 3 0,0
11.12.2019 16:00:00 12,3 8,3 69 37 83 45 W 1021,3 27 0,0
11.12.2019 15:00:00 12,1 7,6 68 37 90 49 W 1021,6 18 0,0
11.12.2019 14:00:00 12,0 6,8 74 40 90 49 W 1021,3 25 0,2
11.12.2019 13:00:00 11,9 6,5 67 36 82 44 W 1022,2 21 -
11.12.2019 12:00:00 12,0 6,5 61 33 76 41 W 1023,5 44 0,0
11.12.2019 11:00:00 11,7 5,8 56 30 77 41 W 1023,3 50 0,0
11.12.2019 10:00:00 11,4 4,8 63 34 75 41 W 1023,3 30 0,2
11.12.2019 09:00:00 10,1 6,7 42 23 69 37 W 1023,7 0 0,0
11.12.2019 08:00:00 10,1 5,1 43 23 81 44 W 1023,5 0 0,0
11.12.2019 07:00:00 11,4 3,9 52 28 63 34 WNW 1022,2 0 -
11.12.2019 06:00:00 11,5 4,5 45 25 65 35 WNW 1022,1 0 0,0
11.12.2019 05:00:00 11,3 7,3 39 21 54 29 WNW 1021,6 0 0,6
11.12.2019 04:00:00 10,1 8,9 34 18 42 23 W 1022,2 0 0,6
11.12.2019 03:00:00 9,9 7,7 34 18 51 28 WNW 1021,8 0 0,8
11.12.2019 02:00:00 10,3 8,9 32 18 46 25 WNW 1021,2 0 0,6
11.12.2019 01:00:00 9,6 8,3 26 14 49 26 NNW 1021,3 0 -
11.12.2019 00:00:00 11,4 10,3 30 16 70 38 NW 1019,4 0 1,4
10.12.2019 23:00:00 13,3 10,5 61 33 84 46 WSW 1016,9 0 0,0
10.12.2019 22:00:00 14,0 9,7 57 31 72 39 WSW 1017,5 0 0,0
10.12.2019 21:00:00 13,9 9,2 58 32 73 40 WSW 1017,6 0 0,0
10.12.2019 20:00:00 13,7 8,1 51 28 66 36 WSW 1018,6 0 0,0
10.12.2019 19:00:00 14,0 5,6 45 24 63 34 WSW 1019,5 0 -
10.12.2019 18:00:00 14,2 5,6 45 25 57 31 W 1019,7 12 0,0
10.12.2019 17:00:00 15,4 3,8 36 20 62 33 WSW 1019,8 8 0,0
10.12.2019 16:00:00 15,2 3,0 45 24 66 35 WSW 1020,0 51 0,0
10.12.2019 15:00:00 15,0 3,8 53 29 65 35 W 1020,7 33 0,0
10.12.2019 14:00:00 14,4 4,3 43 23 52 28 W 1022,0 9 0,0
10.12.2019 13:00:00 14,0 6,4 29 16 37 20 W 1023,2 0 -
10.12.2019 12:00:00 13,7 3,2 24 13 30 16 WSW 1024,5 8 0,0
10.12.2019 11:00:00 11,3 5,1 18 10 22 12 WSW 1025,1 14 0,0
10.12.2019 10:00:00 11,2 4,1 16 9 24 13 WSW 1025,3 5 0,0
10.12.2019 09:00:00 11,6 3,8 24 13 40 22 W 1025,5 0 0,0
10.12.2019 08:00:00 11,1 4,5 26 14 29 16 W 1026,1 0 0,0
10.12.2019 07:00:00 10,9 6,2 17 9 19 11 W 1026,4 0 -
10.12.2019 06:00:00 11,5 4,6 6 4 22 12 SW 1026,8 0 0,0
10.12.2019 05:00:00 10,5 5,9 18 10 29 16 SSE 1027,4 0 0,0
10.12.2019 04:00:00 9,8 6,1 23 12 26 14 SSE 1028,2 0 0,0
10.12.2019 03:00:00 10,2 5,3 14 7 19 10 SSE 1029,1 0 0,0
10.12.2019 02:00:00 11,6 5,9 9 5 19 10 SW 1029,7 0 0,0
10.12.2019 01:00:00 10,6 7,8 11 6 23 12 W 1030,2 0 -
10.12.2019 00:00:00 10,6 8,0 22 12 27 15 WSW 1030,6 0 0,0
09.12.2019 23:00:00 10,6 8,1 19 11 23 12 W 1030,8 0 0,0
09.12.2019 22:00:00 10,6 8,9 10 6 16 9 W 1031,1 0 0,0
09.12.2019 21:00:00 11,7 9,8 7 4 10 5 W 1031,4 0 0,0
09.12.2019 20:00:00 11,1 8,8 4 2 9 5 SW 1031,3 0 0,0
09.12.2019 19:00:00 12,1 8,5 6 4 13 7 S 1031,0 0 -
09.12.2019 18:00:00 12,4 9,2 11 6 22 12 W 1031,0 0 0,0

tt = temperature
td = dewpoint
ff = wind speed
fx = gusts
dd = wind direction
ppp = reduced air pressure
sd = sunshine duration
rr = precipitation

Next stations